createdAt,value
2023-01-05T00:02:17.482Z,101508.97
2023-01-05T00:04:52.733Z,101503.72
2023-01-05T00:07:22.865Z,101508.66
2023-01-05T00:09:52.907Z,101512.00
2023-01-05T00:12:41.930Z,101505.66
2023-01-05T00:15:30.871Z,101501.81
2023-01-05T00:18:19.740Z,101510.06
2023-01-05T00:21:16.246Z,101510.59
2023-01-05T00:23:47.533Z,101526.00
2023-01-05T00:26:17.711Z,101527.34
2023-01-05T00:28:48.113Z,101533.38
2023-01-05T00:31:18.507Z,101532.84
2023-01-05T00:33:48.670Z,101543.00
2023-01-05T00:36:18.853Z,101538.06
2023-01-05T00:38:49.027Z,101544.94
2023-01-05T00:41:19.252Z,101544.69
2023-01-05T00:43:49.183Z,101547.69
2023-01-05T00:46:19.667Z,101555.94
2023-01-05T00:48:49.691Z,101558.69
2023-01-05T00:51:19.666Z,101557.88
2023-01-05T00:53:51.419Z,101571.88
2023-01-05T00:56:21.729Z,101578.22
2023-01-05T00:58:57.023Z,101582.88
2023-01-05T01:01:27.993Z,101591.66
2023-01-05T01:03:59.051Z,101594.72
2023-01-05T01:06:30.517Z,101599.94
2023-01-05T01:09:01.150Z,101599.94
2023-01-05T01:11:31.367Z,101604.06
2023-01-05T01:14:01.576Z,101607.34
2023-01-05T01:16:31.788Z,101610.38
2023-01-05T01:19:05.281Z,101616.41
2023-01-05T01:21:35.776Z,101615.88
2023-01-05T01:24:05.866Z,101614.75
2023-01-05T01:26:35.998Z,101622.47
2023-01-05T01:29:06.634Z,101620.50
2023-01-05T01:31:37.828Z,101630.16
2023-01-05T01:34:07.819Z,101624.91
2023-01-05T01:36:37.987Z,101631.25
2023-01-05T01:39:09.243Z,101639.22
2023-01-05T01:41:41.674Z,101638.94
2023-01-05T01:44:48.906Z,101641.41
2023-01-05T01:47:27.292Z,101638.66
2023-01-05T01:50:00.515Z,101645.53
2023-01-05T01:52:32.163Z,101648.28
2023-01-05T01:55:04.593Z,101647.19
2023-01-05T01:57:36.268Z,101650.75
2023-01-05T02:00:09.694Z,101650.44
2023-01-05T02:02:54.651Z,101645.25
2023-01-05T02:05:33.644Z,101658.72
2023-01-05T02:08:04.310Z,101654.84
2023-01-05T02:10:58.860Z,101651.84
2023-01-05T02:14:04.056Z,101654.31
2023-01-05T02:16:46.944Z,101663.66
2023-01-05T02:19:33.043Z,101663.66
2023-01-05T02:22:33.233Z,101667.25
2023-01-05T02:25:44.705Z,101666.13
2023-01-05T02:28:28.603Z,101654.84
2023-01-05T02:31:14.793Z,101662.78
2023-01-05T02:34:10.559Z,101661.16
2023-01-05T02:36:56.178Z,101664.44
2023-01-05T02:39:45.644Z,101669.13
2023-01-05T02:42:23.303Z,101669.94
2023-01-05T02:44:54.059Z,101664.19
2023-01-05T02:47:30.570Z,101664.19
2023-01-05T02:50:10.419Z,101677.09
2023-01-05T02:52:51.192Z,101664.72
2023-01-05T02:55:29.540Z,101667.75
2023-01-05T02:58:26.903Z,101672.13
2023-01-05T03:01:06.658Z,101670.75
2023-01-05T03:03:47.688Z,101674.34
2023-01-05T03:06:35.417Z,101675.13
2023-01-05T03:09:09.571Z,101672.38
2023-01-05T03:12:35.366Z,101671.59
2023-01-05T03:15:29.798Z,101674.34
2023-01-05T03:18:04.581Z,101678.44
2023-01-05T03:20:38.489Z,101678.97
2023-01-05T03:23:31.963Z,101673.25
2023-01-05T03:26:20.948Z,101669.09
2023-01-05T03:29:17.351Z,101663.06
2023-01-05T03:32:35.183Z,101663.88
2023-01-05T03:35:29.441Z,101659.50
2023-01-05T03:38:14.736Z,101656.75
2023-01-05T03:40:49.448Z,101655.91
2023-01-05T03:43:21.869Z,101658.38
2023-01-05T03:45:59.745Z,101650.41
2023-01-05T03:48:33.008Z,101646.25
2023-01-05T03:51:03.459Z,101646.56
2023-01-05T03:53:33.970Z,101641.06
2023-01-05T03:56:04.158Z,101641.84
2023-01-05T03:58:34.733Z,101642.13
2023-01-05T04:01:05.037Z,101632.78
2023-01-05T04:03:35.697Z,101616.28
2023-01-05T04:06:09.167Z,101618.47
2023-01-05T04:08:41.224Z,101614.34
2023-01-05T04:11:19.304Z,101611.59
2023-01-05T04:13:55.313Z,101601.41
2023-01-05T04:16:27.359Z,101603.34
2023-01-05T04:19:00.302Z,101599.47
2023-01-05T04:21:30.634Z,101595.31
2023-01-05T04:24:01.174Z,101592.88
2023-01-05T04:26:31.613Z,101580.22
2023-01-05T04:29:02.985Z,101582.41
2023-01-05T04:31:33.868Z,101579.94
2023-01-05T04:34:04.310Z,101576.91
2023-01-05T04:36:34.643Z,101575.56
2023-01-05T04:39:05.498Z,101565.34
2023-01-05T04:41:37.274Z,101556.81
2023-01-05T04:44:08.671Z,101561.50
2023-01-05T04:46:38.998Z,101558.47
2023-01-05T04:49:13.614Z,101545.53
2023-01-05T04:51:45.315Z,101551.56
2023-01-05T04:54:16.639Z,101545.25
2023-01-05T04:56:47.045Z,101548.53
2023-01-05T04:59:17.592Z,101532.88
2023-01-05T05:01:48.427Z,101532.03
2023-01-05T05:04:19.220Z,101530.63
2023-01-05T05:06:52.147Z,101521.56
2023-01-05T05:09:25.777Z,101522.38
2023-01-05T05:11:57.647Z,101517.97
2023-01-05T05:14:28.199Z,101507.81
2023-01-05T05:17:01.673Z,101512.19
2023-01-05T05:19:32.992Z,101503.94
2023-01-05T05:22:03.197Z,101498.16
2023-01-05T05:24:33.976Z,101499.78
2023-01-05T05:27:05.932Z,101489.09
2023-01-05T05:29:36.025Z,101484.38
2023-01-05T05:32:06.647Z,101485.22
2023-01-05T05:34:36.899Z,101473.66
2023-01-05T05:37:07.278Z,101469.75
2023-01-05T05:39:37.424Z,101467.84
2023-01-05T05:42:07.759Z,101457.94
2023-01-05T05:44:37.888Z,101456.84
2023-01-05T05:47:08.430Z,101443.06
2023-01-05T05:49:38.568Z,101441.44
2023-01-05T05:52:08.599Z,101440.03
2023-01-05T05:54:38.655Z,101439.22
2023-01-05T05:57:08.883Z,101428.22
2023-01-05T05:59:39.640Z,101412.81
2023-01-05T06:02:09.849Z,101404.25
2023-01-05T06:04:40.072Z,101391.91
2023-01-05T06:07:10.137Z,101394.09
2023-01-05T06:09:40.935Z,101391.03
2023-01-05T06:12:11.524Z,101380.88
2023-01-05T06:14:41.824Z,101367.09
2023-01-05T06:17:12.023Z,101362.94
2023-01-05T06:19:42.207Z,101357.13
2023-01-05T06:22:12.306Z,101352.75
2023-01-05T06:24:42.553Z,101349.97
2023-01-05T06:27:13.141Z,101339.50
2023-01-05T06:29:43.412Z,101335.41
2023-01-05T06:32:13.582Z,101330.44
2023-01-05T06:34:43.837Z,101313.94
2023-01-05T06:37:14.488Z,101308.13
2023-01-05T06:39:44.752Z,101304.84
2023-01-05T06:42:18.935Z,101303.75
2023-01-05T06:44:51.799Z,101300.72
2023-01-05T06:47:22.112Z,101292.16
2023-01-05T06:49:52.855Z,101285.31
2023-01-05T06:52:23.073Z,101286.66
2023-01-05T06:54:53.282Z,101283.09
2023-01-05T06:57:23.464Z,101273.41
2023-01-05T06:59:53.845Z,101280.56
2023-01-05T07:02:24.100Z,101262.41
2023-01-05T07:04:54.267Z,101264.03
2023-01-05T07:07:24.428Z,101253.03
2023-01-05T07:09:54.679Z,101243.94
2023-01-05T07:12:25.745Z,101244.47
2023-01-05T07:14:57.924Z,101236.53
2023-01-05T07:17:28.747Z,101231.81
2023-01-05T07:19:58.922Z,101223.56
2023-01-05T07:22:30.441Z,101223.56
2023-01-05T07:25:01.754Z,101223.28
2023-01-05T07:27:32.131Z,101210.34
2023-01-05T07:30:02.308Z,101199.31
2023-01-05T07:32:32.539Z,101197.41
2023-01-05T07:35:02.736Z,101203.72
2023-01-05T07:37:33.085Z,101197.94
2023-01-05T07:40:03.370Z,101193.53
2023-01-05T07:42:33.944Z,101184.97
2023-01-05T07:45:05.690Z,101178.66
2023-01-05T07:47:36.023Z,101194.56
2023-01-05T07:50:06.397Z,101181.13
2023-01-05T07:52:36.597Z,101182.44
2023-01-05T07:55:06.906Z,101184.19
2023-01-05T07:57:37.176Z,101180.00
2023-01-05T08:00:08.723Z,101177.84
2023-01-05T08:02:41.822Z,101170.91
2023-01-05T08:05:12.911Z,101158.28
2023-01-05T08:07:43.231Z,101163.50
2023-01-05T08:10:31.366Z,101163.78
2023-01-05T08:13:26.993Z,101157.78
2023-01-05T08:15:58.941Z,101151.66
2023-01-05T08:18:30.083Z,101153.00
2023-01-05T08:21:03.054Z,101151.06
2023-01-05T08:23:34.678Z,101143.63
2023-01-05T08:26:09.976Z,101143.84
2023-01-05T08:28:41.088Z,101132.84
2023-01-05T08:31:16.344Z,101138.84
2023-01-05T08:33:47.124Z,101145.47
2023-01-05T08:36:21.106Z,101144.38
2023-01-05T08:38:54.972Z,101143.53
2023-01-05T08:41:39.428Z,101143.53
2023-01-05T08:44:15.085Z,101133.63
2023-01-05T08:46:45.642Z,101124.06
2023-01-05T08:49:15.823Z,101125.69
2023-01-05T08:51:45.864Z,101126.53
2023-01-05T08:54:16.162Z,101124.56
2023-01-05T08:56:46.532Z,101122.34
2023-01-05T08:59:16.804Z,101122.03
2023-01-05T09:01:47.144Z,101127.53
2023-01-05T09:04:17.444Z,101131.13
2023-01-05T09:06:47.828Z,101136.31
2023-01-05T09:09:18.071Z,101132.44
2023-01-05T09:11:48.233Z,101130.81
2023-01-05T09:14:18.411Z,101145.09
2023-01-05T09:19:38.832Z,101137.97
2023-01-05T09:22:08.901Z,101138.78
2023-01-05T09:24:38.983Z,101135.53
2023-01-05T09:27:10.041Z,101147.06
2023-01-05T09:29:40.656Z,101139.59
2023-01-05T09:32:11.853Z,101137.16
2023-01-05T09:34:41.793Z,101136.31
2023-01-05T09:37:11.805Z,101136.56
2023-01-05T09:39:42.027Z,101130.53
2023-01-05T09:42:19.546Z,101138.78
2023-01-05T09:44:59.148Z,101139.06
2023-01-05T09:47:35.220Z,101138.28
2023-01-05T09:50:10.054Z,101144.81
2023-01-05T09:52:40.251Z,101143.72
2023-01-05T09:55:20.922Z,101150.03
2023-01-05T09:58:30.179Z,101148.09
2023-01-05T10:01:15.696Z,101150.25
2023-01-05T10:04:07.780Z,101147.81
2023-01-05T10:06:41.738Z,101165.66
2023-01-05T10:09:19.119Z,101164.84
2023-01-05T10:12:27.550Z,101164.56
2023-01-05T10:15:22.833Z,101170.06
2023-01-05T10:17:53.026Z,101174.97
2023-01-05T10:20:49.469Z,101181.06
2023-01-05T10:23:25.388Z,101181.06
2023-01-05T10:26:19.673Z,101181.88
2023-01-05T10:29:10.750Z,101185.75
2023-01-05T10:32:06.571Z,101190.75
2023-01-05T10:34:54.951Z,101194.31
2023-01-05T10:37:39.970Z,101194.63
2023-01-05T10:40:30.307Z,101197.38
2023-01-05T10:43:25.888Z,101205.31
2023-01-05T10:46:29.833Z,101207.28
2023-01-05T10:48:47.267Z,101206.97
2023-01-05T10:51:18.558Z,101206.75
2023-01-05T10:53:48.893Z,101207.56
2023-01-05T10:56:26.766Z,101208.38
2023-01-05T10:59:14.050Z,101207.28
2023-01-05T11:01:51.740Z,101219.41
2023-01-05T11:04:34.405Z,101217.44
2023-01-05T11:07:08.415Z,101223.78
2023-01-05T11:09:43.908Z,101224.59
2023-01-05T11:12:32.355Z,101231.22
2023-01-05T11:15:04.418Z,101230.41
2023-01-05T11:17:35.289Z,101232.31
2023-01-05T11:20:07.523Z,101238.66
2023-01-05T11:22:46.616Z,101245.28
2023-01-05T11:25:30.090Z,101248.84
2023-01-05T11:28:19.971Z,101246.09
2023-01-05T11:31:08.380Z,101248.56
2023-01-05T11:33:41.771Z,101250.22
2023-01-05T11:36:17.558Z,101254.88
2023-01-05T11:38:56.820Z,101256.00
2023-01-05T11:41:27.673Z,101257.09
2023-01-05T11:44:02.549Z,101268.66
2023-01-05T11:46:45.195Z,101256.00
2023-01-05T11:49:20.555Z,101265.09
2023-01-05T11:51:50.863Z,101268.13
2023-01-05T11:54:30.041Z,101276.38
2023-01-05T11:57:20.032Z,101275.28
2023-01-05T11:59:50.579Z,101281.09
2023-01-05T12:02:52.317Z,101292.91
2023-01-05T12:05:43.734Z,101290.16
2023-01-05T12:08:20.354Z,101302.28
2023-01-05T12:11:09.633Z,101309.41
2023-01-05T12:13:59.780Z,101314.66
2023-01-05T12:16:49.163Z,101322.06
2023-01-05T12:19:37.165Z,101326.47
2023-01-05T12:22:28.171Z,101338.31
2023-01-05T12:25:16.719Z,101326.47
2023-01-05T12:28:35.633Z,101340.75
2023-01-05T12:34:28.506Z,101354.00
2023-01-05T12:37:01.480Z,101354.00
2023-01-05T12:39:46.884Z,101360.63
2023-01-05T12:42:44.772Z,101363.38
2023-01-05T12:45:32.498Z,101365.31
2023-01-05T12:48:06.284Z,101370.31
2023-01-05T12:51:14.464Z,101376.34
2023-01-05T12:54:00.524Z,101382.66
2023-01-05T12:56:40.233Z,101380.72
2023-01-05T12:59:30.831Z,101394.19
2023-01-05T13:02:33.460Z,101398.06
2023-01-05T13:05:07.064Z,101392.56
2023-01-05T13:08:02.826Z,101400.81
2023-01-05T13:10:35.815Z,101397.25
2023-01-05T13:13:13.764Z,101398.06
2023-01-05T13:17:14.749Z,101400.50
2023-01-05T13:19:51.108Z,101407.44
2023-01-05T13:22:31.818Z,101403.56
2023-01-05T13:25:09.322Z,101412.13
2023-01-05T13:27:39.786Z,101412.34
2023-01-05T13:30:16.094Z,101425.00
2023-01-05T13:33:13.405Z,101422.25
2023-01-05T13:35:58.908Z,101422.25
2023-01-05T13:38:51.935Z,101425.00
2023-01-05T13:41:44.906Z,101421.72
2023-01-05T13:44:43.712Z,101434.38
2023-01-05T13:47:28.297Z,101439.88
2023-01-05T13:50:35.885Z,101443.44
2023-01-05T13:53:25.735Z,101438.47
2023-01-05T13:56:03.893Z,101446.72
2023-01-05T13:59:15.567Z,101451.97
2023-01-05T14:01:55.549Z,101453.88
2023-01-05T14:04:29.799Z,101454.41
2023-01-05T14:07:09.691Z,101451.34
2023-01-05T14:09:45.579Z,101461.25
2023-01-05T14:12:18.824Z,101465.66
2023-01-05T14:15:24.469Z,101454.13
2023-01-05T14:17:56.239Z,101459.88
2023-01-05T14:20:38.727Z,101454.91
2023-01-05T14:23:31.957Z,101457.34
2023-01-05T14:26:10.359Z,101459.78
2023-01-05T14:28:48.670Z,101455.66
2023-01-05T14:31:23.871Z,101458.41
2023-01-05T14:34:01.384Z,101455.66
2023-01-05T14:36:36.697Z,101454.53
2023-01-05T14:39:20.954Z,101462.50
2023-01-05T14:42:05.388Z,101464.16
2023-01-05T14:44:46.564Z,101453.44
2023-01-05T14:47:17.756Z,101459.44
2023-01-05T14:50:05.773Z,101457.00
2023-01-05T14:53:02.038Z,101464.16
2023-01-05T14:55:38.934Z,101457.22
2023-01-05T14:58:43.437Z,101457.53
2023-01-05T15:01:27.994Z,101458.31
2023-01-05T15:04:14.038Z,101458.06
2023-01-05T15:06:44.375Z,101461.09
2023-01-05T15:09:43.618Z,101461.09
2023-01-05T15:12:46.216Z,101465.47
2023-01-05T15:15:44.231Z,101452.53
2023-01-05T15:18:41.777Z,101464.38
2023-01-05T15:21:20.778Z,101452.31
2023-01-05T15:23:57.066Z,101454.25
2023-01-05T15:27:03.901Z,101462.81
2023-01-05T15:29:46.672Z,101456.19
2023-01-05T15:32:42.108Z,101461.16
2023-01-05T15:35:32.497Z,101460.06
2023-01-05T15:38:22.423Z,101452.06
2023-01-05T15:41:11.732Z,101454.00
2023-01-05T15:43:44.819Z,101446.34
2023-01-05T15:46:20.075Z,101456.53
2023-01-05T15:48:54.646Z,101451.03
2023-01-05T15:51:35.997Z,101444.69
2023-01-05T15:54:07.745Z,101447.75
2023-01-05T15:56:44.023Z,101441.41
2023-01-05T15:59:35.252Z,101443.88
2023-01-05T16:02:18.188Z,101441.97
2023-01-05T16:04:48.403Z,101445.84
2023-01-05T16:07:18.750Z,101453.59
2023-01-05T16:09:49.671Z,101450.31
2023-01-05T16:12:28.699Z,101452.25
2023-01-05T16:15:04.269Z,101455.81
2023-01-05T16:17:38.089Z,101449.78
2023-01-05T16:20:17.999Z,101455.81
2023-01-05T16:23:04.547Z,101458.06
2023-01-05T16:25:54.831Z,101452.81
2023-01-05T16:28:26.983Z,101449.25
2023-01-05T16:30:57.722Z,101449.56
2023-01-05T16:33:38.236Z,101453.13
2023-01-05T16:36:14.481Z,101444.34
2023-01-05T16:38:46.708Z,101438.28
2023-01-05T16:41:28.697Z,101442.41
2023-01-05T16:44:03.208Z,101444.63
2023-01-05T16:46:33.406Z,101441.03
2023-01-05T16:49:37.369Z,101451.25
2023-01-05T16:52:24.228Z,101438.59
2023-01-05T16:55:29.184Z,101443.28
2023-01-05T16:58:02.126Z,101441.63
2023-01-05T17:00:37.568Z,101447.41
2023-01-05T17:03:26.035Z,101446.59
2023-01-05T17:05:57.704Z,101437.50
2023-01-05T17:08:33.216Z,101446.06
2023-01-05T17:11:05.933Z,101448.81
2023-01-05T17:13:50.973Z,101446.88
2023-01-05T17:16:22.831Z,101440.56
2023-01-05T17:18:53.335Z,101434.53
2023-01-05T17:21:26.271Z,101432.56
2023-01-05T17:24:00.205Z,101427.38
2023-01-05T17:26:39.630Z,101426.56
2023-01-05T17:29:10.673Z,101433.19
2023-01-05T17:31:40.871Z,101435.09
2023-01-05T17:34:10.912Z,101437.84
2023-01-05T17:36:41.471Z,101437.84
2023-01-05T17:39:16.732Z,101438.69
2023-01-05T17:41:47.395Z,101431.53
2023-01-05T17:44:17.697Z,101437.31
2023-01-05T17:46:50.484Z,101430.16
2023-01-05T17:49:23.528Z,101434.28
2023-01-05T17:51:53.732Z,101445.56
2023-01-05T17:54:24.255Z,101437.31
2023-01-05T17:56:54.381Z,101434.56
2023-01-05T17:59:24.400Z,101434.03
2023-01-05T18:01:56.341Z,101436.78
2023-01-05T18:04:27.339Z,101431.28
2023-01-05T18:06:58.992Z,101435.66
2023-01-05T18:09:29.371Z,101429.34
2023-01-05T18:11:59.568Z,101428.53
2023-01-05T18:14:29.977Z,101430.47
2023-01-05T18:17:00.133Z,101430.78
2023-01-05T18:19:32.469Z,101422.22
2023-01-05T18:22:03.860Z,101417.25
2023-01-05T18:24:34.019Z,101420.56
2023-01-05T18:27:08.991Z,101412.63
2023-01-05T18:29:40.448Z,101410.91
2023-01-05T18:32:10.817Z,101392.50
2023-01-05T18:34:41.360Z,101394.38
2023-01-05T18:37:21.226Z,101387.31
2023-01-05T18:39:52.490Z,101399.97
2023-01-05T18:42:22.938Z,101394.16
2023-01-05T18:44:53.709Z,101379.59
2023-01-05T18:47:23.885Z,101368.28
2023-01-05T18:49:55.648Z,101368.03
2023-01-05T18:52:25.920Z,101365.28
2023-01-05T18:54:56.912Z,101366.41
2023-01-05T18:57:28.181Z,101364.19
2023-01-05T18:59:58.122Z,101357.03
2023-01-05T19:02:28.617Z,101354.88
2023-01-05T19:04:58.961Z,101346.59
2023-01-05T19:07:29.437Z,101344.66
2023-01-05T19:10:00.101Z,101341.91
2023-01-05T19:12:30.944Z,101338.34
2023-01-05T19:15:01.608Z,101343.84
2023-01-05T19:17:31.701Z,101343.84
2023-01-05T19:20:01.809Z,101334.75
2023-01-05T19:22:32.996Z,101333.66
2023-01-05T19:25:03.633Z,101331.22
2023-01-05T19:27:33.896Z,101331.50
2023-01-05T19:30:03.968Z,101329.56
2023-01-05T19:32:35.827Z,101324.06
2023-01-05T19:35:08.461Z,101327.91
2023-01-05T19:37:40.577Z,101327.13
2023-01-05T19:40:12.394Z,101324.06
2023-01-05T19:42:42.666Z,101318.03
2023-01-05T19:45:13.459Z,101316.69
2023-01-05T19:47:45.187Z,101315.00
2023-01-05T19:50:15.379Z,101303.75
2023-01-05T19:52:46.145Z,101308.13
2023-01-05T19:55:16.753Z,101299.59
2023-01-05T19:57:46.957Z,101293.56
2023-01-05T20:00:18.829Z,101288.88
2023-01-05T20:02:49.050Z,101284.19
2023-01-05T20:05:19.720Z,101283.38
2023-01-05T20:07:49.914Z,101274.56
2023-01-05T20:10:20.500Z,101278.69
2023-01-05T20:12:50.702Z,101265.22
2023-01-05T20:15:20.952Z,101262.47
2023-01-05T20:17:51.239Z,101267.97
2023-01-05T20:20:21.434Z,101256.69
2023-01-05T20:22:51.689Z,101268.78
2023-01-05T20:25:22.077Z,101256.72
2023-01-05T20:27:52.367Z,101259.72
2023-01-05T20:30:22.815Z,101257.25
2023-01-05T20:32:53.375Z,101258.69
2023-01-05T20:35:23.315Z,101259.47
2023-01-05T20:37:53.486Z,101264.19
2023-01-05T20:40:23.865Z,101257.03
2023-01-05T20:42:54.145Z,101260.91
2023-01-05T20:45:24.312Z,101258.91
2023-01-05T20:47:54.509Z,101256.72
2023-01-05T20:50:24.488Z,101260.31
2023-01-05T20:52:54.660Z,101259.78
2023-01-05T20:55:24.967Z,101260.38
2023-01-05T20:57:55.205Z,101256.50
2023-01-05T21:00:25.959Z,101254.34
2023-01-05T21:02:56.161Z,101260.31
2023-01-05T21:05:26.543Z,101258.16
2023-01-05T21:07:56.856Z,101255.97
2023-01-05T21:10:27.047Z,101262.28
2023-01-05T21:12:57.313Z,101268.09
2023-01-05T21:15:54.910Z,101268.09
2023-01-05T21:18:25.836Z,101268.09
2023-01-05T21:20:56.765Z,101277.47
2023-01-05T21:23:27.727Z,101277.16
2023-01-05T21:26:06.743Z,101283.50
2023-01-05T21:28:40.300Z,101280.44
2023-01-05T21:31:13.238Z,101287.94
2023-01-05T21:33:44.663Z,101295.91
2023-01-05T21:36:16.608Z,101292.06
2023-01-05T21:39:02.626Z,101286.03
2023-01-05T21:41:57.195Z,101306.03
2023-01-05T21:44:28.189Z,101314.06
2023-01-05T21:46:58.323Z,101314.28
2023-01-05T21:49:28.977Z,101322.59
2023-01-05T21:52:18.934Z,101334.13
2023-01-05T21:55:08.131Z,101330.31
2023-01-05T21:57:39.176Z,101330.31
2023-01-05T22:00:11.157Z,101335.00
2023-01-05T22:02:41.517Z,101335.00
2023-01-05T22:05:11.908Z,101340.75
2023-01-05T22:07:42.341Z,101346.25
2023-01-05T22:10:13.512Z,101346.28
2023-01-05T22:12:43.789Z,101352.06
2023-01-05T22:15:14.309Z,101358.94
2023-01-05T22:17:44.567Z,101344.66
2023-01-05T22:20:16.095Z,101352.31
2023-01-05T22:22:46.068Z,101353.97
2023-01-05T22:25:17.359Z,101355.91
2023-01-05T22:27:47.818Z,101350.09
2023-01-05T22:30:17.973Z,101363.31
2023-01-05T22:32:48.051Z,101361.41
2023-01-05T22:35:18.375Z,101364.16
2023-01-05T22:37:48.426Z,101363.91
2023-01-05T22:40:18.886Z,101363.09
2023-01-05T22:42:49.517Z,101377.97
2023-01-05T22:45:19.753Z,101378.72
2023-01-05T22:47:49.951Z,101382.88
2023-01-05T22:50:20.429Z,101388.41
2023-01-05T22:52:51.030Z,101383.44
2023-01-05T22:55:47.392Z,101388.63
2023-01-05T22:58:17.525Z,101390.59
2023-01-05T23:00:47.815Z,101389.88
2023-01-05T23:03:18.117Z,101397.63
2023-01-05T23:05:48.892Z,101386.66
2023-01-05T23:08:19.228Z,101388.06
2023-01-05T23:10:50.512Z,101393.84
2023-01-05T23:13:20.742Z,101392.72
2023-01-05T23:15:58.752Z,101406.44
2023-01-05T23:18:29.008Z,101405.88
2023-01-05T23:21:02.926Z,101408.09
2023-01-05T23:23:34.048Z,101407.25
2023-01-05T23:26:04.470Z,101410.84
2023-01-05T23:28:34.793Z,101414.69
2023-01-05T23:31:06.356Z,101421.84
2023-01-05T23:33:38.619Z,101411.94
2023-01-05T23:36:09.304Z,101422.38
2023-01-05T23:38:39.801Z,101430.09
2023-01-05T23:41:12.287Z,101434.50
2023-01-05T23:43:44.397Z,101434.50
2023-01-05T23:46:22.233Z,101435.03
2023-01-05T23:48:54.347Z,101435.03
2023-01-05T23:51:24.667Z,101446.56
2023-01-05T23:53:55.932Z,101441.38
2023-01-05T23:56:32.331Z,101447.97
2023-01-05T23:59:08.894Z,101462.81
